Time;durP1;ratioP1;P1;durP2;ratioP2;P2;SDS_P1;SDS_P2;PMS_P1;PMS_P2;Temp;Humidity;BMP_temperature;BMP_pressure;BME280_temperature;BME280_humidity;BME280_pressure;Samples;Min_cycle;Max_cycle;Signal;HPM_P1;HPM_P2
2023/07/18 00:00:29;;;;;;;4.70;2.63;;;;;;;14.06;100.00;101991.63;4990837;28;20022;-61
2023/07/18 00:02:55;;;;;;;4.15;2.60;;;;;;;14.07;100.00;101982.97;5002439;28;20114;-61
2023/07/18 00:05:21;;;;;;;5.53;2.65;;;;;;;14.05;100.00;101990.75;5010375;28;20386;-60
2023/07/18 00:07:47;;;;;;;5.47;3.22;;;;;;;14.06;100.00;101991.63;5009810;28;20037;-61
2023/07/18 00:10:13;;;;;;;8.10;3.40;;;;;;;14.08;100.00;101987.38;5009550;28;20022;-60
2023/07/18 00:12:39;;;;;;;4.50;2.88;;;;;;;14.05;100.00;101985.53;5008904;28;20038;-61
2023/07/18 00:15:06;;;;;;;4.57;3.22;;;;;;;14.04;100.00;101993.28;5008752;28;20022;-62
2023/07/18 00:17:33;;;;;;;6.97;2.95;;;;;;;14.02;100.00;101984.53;5008091;28;20042;-61
2023/07/18 00:19:59;;;;;;;7.28;3.33;;;;;;;14.01;100.00;101990.59;4998170;28;20024;-61
2023/07/18 00:22:25;;;;;;;3.25;2.92;;;;;;;13.98;100.00;101995.66;5008269;28;20021;-61
2023/07/18 00:24:50;;;;;;;7.20;3.63;;;;;;;13.90;100.00;101993.69;5009109;28;20018;-61
2023/07/18 00:27:16;;;;;;;4.68;3.67;;;;;;;13.87;100.00;101998.75;5009423;28;20025;-61
2023/07/18 00:29:42;;;;;;;5.63;3.20;;;;;;;13.83;100.00;101989.09;5008690;28;20018;-61
2023/07/18 00:32:07;;;;;;;5.22;3.00;;;;;;;13.79;100.00;101995.91;5009864;28;20030;-61
2023/07/18 00:34:33;;;;;;;6.00;3.28;;;;;;;13.79;100.00;101992.41;5008820;28;20022;-60
2023/07/18 00:36:58;;;;;;;7.30;3.20;;;;;;;13.78;100.00;101998.44;5008506;28;20037;-60
2023/07/18 00:39:23;;;;;;;7.82;3.10;;;;;;;13.76;100.00;101994.91;5005695;28;20022;-61
2023/07/18 00:41:49;;;;;;;7.15;3.15;;;;;;;13.72;100.00;101995.59;5007461;28;20044;-62
2023/07/18 00:44:14;;;;;;;6.78;4.05;;;;;;;13.64;100.00;101988.38;5005825;28;20087;-61
2023/07/18 00:46:40;;;;;;;6.45;3.63;;;;;;;13.60;100.00;101988.22;5006223;28;20100;-61
2023/07/18 00:49:05;;;;;;;6.32;3.50;;;;;;;13.51;100.00;101984.38;5004556;28;20022;-60
2023/07/18 00:51:31;;;;;;;6.88;4.07;;;;;;;13.50;100.00;101985.22;4990047;28;20088;-61
2023/07/18 00:53:56;;;;;;;8.40;4.00;;;;;;;13.47;100.00;101979.00;5015671;28;20048;-60
2023/07/18 00:56:22;;;;;;;5.90;3.70;;;;;;;13.45;100.00;101977.22;4990329;28;20026;-61
2023/07/18 00:58:48;;;;;;;4.32;3.70;;;;;;;13.45;100.00;101982.44;4994053;28;20026;-62
2023/07/18 01:01:13;;;;;;;6.45;4.25;;;;;;;13.47;100.00;101982.53;4998566;28;20158;-61
2023/07/18 01:03:39;;;;;;;6.82;4.68;;;;;;;13.45;100.00;101982.44;4990110;28;20026;-62
2023/07/18 01:06:05;;;;;;;7.30;4.28;;;;;;;13.44;100.00;101974.56;4990694;28;20336;-61
2023/07/18 01:08:30;;;;;;;5.57;4.10;;;;;;;13.44;100.00;101970.25;4989860;28;20030;-61
2023/07/18 01:10:56;;;;;;;5.13;3.85;;;;;;;13.43;100.00;101972.81;4990203;28;20108;-61
2023/07/18 01:13:22;;;;;;;9.02;4.50;;;;;;;13.44;100.00;101974.56;4994788;28;20509;-61
2023/07/18 01:15:47;;;;;;;7.38;4.32;;;;;;;13.43;100.00;101971.09;4997149;28;20549;-61
2023/07/18 01:18:13;;;;;;;7.60;4.22;;;;;;;13.45;100.00;101965.94;5002535;28;20022;-61
2023/07/18 01:20:39;;;;;;;4.97;3.63;;;;;;;13.43;100.00;101976.31;5005475;28;20034;-61
2023/07/18 01:23:05;;;;;;;8.60;4.45;;;;;;;13.42;100.00;101971.91;4993791;28;20356;-61
2023/07/18 01:25:30;;;;;;;7.32;4.57;;;;;;;13.41;100.00;101970.16;4993915;28;20084;-61
2023/07/18 01:27:57;;;;;;;7.20;4.38;;;;;;;13.39;100.00;101964.00;4996024;28;20033;-61
2023/07/18 01:30:27;;;;;;;6.60;4.07;;;;;;;13.37;100.00;101960.44;5008837;28;20032;-61
2023/07/18 01:32:54;;;;;;;7.78;4.00;;;;;;;13.36;100.00;101961.28;4992186;28;20097;-60
2023/07/18 01:35:23;;;;;;;8.38;3.88;;;;;;;13.33;100.00;101963.75;4989066;28;20100;-61
2023/07/18 01:37:49;;;;;;;5.53;4.30;;;;;;;13.32;100.00;101959.38;4988957;28;20173;-61
2023/07/18 01:40:19;;;;;;;7.10;4.30;;;;;;;13.31;100.00;101966.28;5001604;28;20071;-61
2023/07/18 01:42:45;;;;;;;7.27;4.00;;;;;;;13.30;100.00;101966.22;4989420;28;20053;-61
2023/07/18 01:45:11;;;;;;;6.93;4.60;;;;;;;13.27;100.00;101947.91;4989402;28;20471;-61
2023/07/18 01:47:37;;;;;;;4.47;4.05;;;;;;;13.27;100.00;101955.72;4990482;28;20037;-61
2023/07/18 01:50:04;;;;;;;6.28;4.40;;;;;;;13.25;100.00;101957.34;5008510;28;20505;-61
2023/07/18 01:52:31;;;;;;;6.57;4.22;;;;;;;13.24;100.00;101950.41;5000969;28;20018;-61
2023/07/18 01:55:00;;;;;;;6.30;3.83;;;;;;;13.21;100.00;101945.94;5002115;28;20034;-61
2023/07/18 01:57:28;;;;;;;5.18;4.40;;;;;;;13.19;100.00;101942.38;5000630;28;20542;-61
2023/07/18 01:59:54;;;;;;;8.02;5.00;;;;;;;13.15;100.00;101946.59;4988650;28;20077;-61
2023/07/18 02:02:19;;;;;;;5.47;4.35;;;;;;;13.13;100.00;101944.78;4988625;28;20023;-61
2023/07/18 02:04:46;;;;;;;8.88;4.88;;;;;;;13.12;100.00;101946.47;5003783;28;20164;-60
2023/07/18 02:07:11;;;;;;;5.65;4.63;;;;;;;13.09;100.00;101938.56;5008652;28;20034;-61
2023/07/18 02:09:37;;;;;;;7.13;4.30;;;;;;;13.06;100.00;101933.25;4992838;28;20037;-60
2023/07/18 02:12:03;;;;;;;5.90;4.15;;;;;;;13.06;100.00;101931.50;4989057;28;20459;-61
2023/07/18 02:14:28;;;;;;;5.30;4.20;;;;;;;13.07;100.00;101927.19;4991032;28;20036;-60
2023/07/18 02:16:53;;;;;;;6.18;4.82;;;;;;;13.08;100.00;101923.75;4999035;28;20034;-61
2023/07/18 02:19:19;;;;;;;6.70;3.50;;;;;;;13.08;100.00;101926.34;5003902;28;20409;-61
2023/07/18 02:21:44;;;;;;;6.90;4.28;;;;;;;13.07;100.00;101925.50;5008271;28;20030;-62
2023/07/18 02:24:10;;;;;;;6.20;4.20;;;;;;;13.04;100.00;101927.09;5007607;28;20060;-61
2023/07/18 02:26:35;;;;;;;6.90;4.60;;;;;;;13.01;100.00;101926.94;5001103;28;20030;-61
2023/07/18 02:29:01;;;;;;;5.47;4.00;;;;;;;12.97;100.00;101924.22;4988399;28;20182;-61
2023/07/18 02:31:26;;;;;;;5.25;4.00;;;;;;;12.99;100.00;101920.81;4988665;28;20060;-61
2023/07/18 02:33:51;;;;;;;5.20;4.13;;;;;;;13.02;100.00;101932.22;5002305;28;20041;-61
2023/07/18 02:36:17;;;;;;;5.22;3.45;;;;;;;13.05;100.00;101931.44;5007287;28;20022;-61
2023/07/18 02:38:43;;;;;;;6.63;3.83;;;;;;;13.08;100.00;101929.84;5007548;28;20044;-61
2023/07/18 02:41:09;;;;;;;5.57;3.63;;;;;;;13.09;100.00;101926.44;5007988;28;20058;-61
2023/07/18 02:43:34;;;;;;;3.65;3.03;;;;;;;13.07;100.00;101927.19;5007126;28;20083;-61
2023/07/18 02:45:59;;;;;;;4.95;3.42;;;;;;;13.00;100.00;101927.78;4988045;28;20026;-61
2023/07/18 02:48:25;;;;;;;7.78;3.75;;;;;;;12.95;100.00;101925.88;4988476;28;20064;-61
2023/07/18 02:50:50;;;;;;;4.88;2.95;;;;;;;12.96;100.00;101930.28;4988938;28;20498;-60
2023/07/18 02:53:16;;;;;;;5.05;3.60;;;;;;;12.97;100.00;101925.94;4999802;28;20464;-61
2023/07/18 02:55:42;;;;;;;6.93;3.17;;;;;;;12.99;100.00;101921.69;5002302;28;20022;-62
2023/07/18 02:58:07;;;;;;;4.68;3.30;;;;;;;13.02;100.00;101926.13;5000380;28;20022;-62
2023/07/18 03:00:33;;;;;;;4.63;2.85;;;;;;;13.03;100.00;101922.69;5007758;28;20500;-60
2023/07/18 03:02:59;;;;;;;6.22;3.28;;;;;;;13.02;100.00;101926.13;4995104;28;20026;-61
2023/07/18 03:05:25;;;;;;;6.43;3.33;;;;;;;13.00;100.00;101923.47;4988095;28;20027;-61
2023/07/18 03:07:51;;;;;;;5.30;3.10;;;;;;;12.96;100.00;101927.66;4987608;28;20390;-60
2023/07/18 03:10:16;;;;;;;4.78;3.20;;;;;;;12.91;100.00;101924.00;4987829;28;20099;-62
2023/07/18 03:12:41;;;;;;;4.68;3.05;;;;;;;12.89;100.00;101920.44;4987835;28;20041;-62
2023/07/18 03:15:11;;;;;;;3.97;3.13;;;;;;;12.87;100.00;101922.09;4993741;28;20026;-62
2023/07/18 03:17:36;;;;;;;5.13;2.90;;;;;;;12.82;100.00;101921.91;5006317;28;20033;-61
2023/07/18 03:20:16;;;;;;;5.55;2.97;;;;;;;12.80;100.00;101926.16;5007447;28;20018;-61
2023/07/18 03:22:44;;;;;;;4.85;3.17;;;;;;;12.79;100.00;101931.31;5006747;28;20030;-60
2023/07/18 03:25:10;;;;;;;6.03;2.67;;;;;;;12.78;100.00;101924.31;5006823;28;20593;-61
2023/07/18 03:27:35;;;;;;;4.38;3.45;;;;;;;12.73;100.00;101917.25;4993741;28;20121;-61
2023/07/18 03:30:00;;;;;;;3.53;2.90;;;;;;;12.70;100.00;101911.88;5006572;28;20030;-62
2023/07/18 03:32:25;;;;;;;6.80;2.60;;;;;;;12.64;100.00;101922.06;5003754;28;20080;-61
2023/07/18 03:34:51;;;;;;;4.13;2.88;;;;;;;12.60;100.00;101922.75;5005227;28;20516;-61
2023/07/18 03:37:16;;;;;;;4.05;2.30;;;;;;;12.56;100.00;101919.13;5003266;28;20030;-62
2023/07/18 03:39:41;;;;;;;5.13;2.65;;;;;;;12.49;100.00;101923.19;4986301;28;20034;-61
2023/07/18 03:42:07;;;;;;;3.17;2.65;;;;;;;12.45;100.00;101918.69;4984988;28;20089;-61
2023/07/18 03:44:32;;;;;;;5.43;2.00;;;;;;;12.43;100.00;101922.94;4985805;28;20034;-61
2023/07/18 03:46:57;;;;;;;3.78;2.72;;;;;;;12.36;100.00;101920.91;4986599;28;20536;-60
2023/07/18 03:49:23;;;;;;;4.22;2.42;;;;;;;12.34;100.00;101928.63;4986366;28;20019;-61
2023/07/18 03:51:48;;;;;;;3.65;2.58;;;;;;;12.31;100.00;101925.91;4987123;28;20030;-61
2023/07/18 03:54:13;;;;;;;5.90;2.92;;;;;;;12.30;100.00;101920.66;5007221;28;20029;-60
2023/07/18 03:56:38;;;;;;;5.47;2.17;;;;;;;12.28;100.00;101914.50;4994887;28;20105;-60
2023/07/18 03:59:04;;;;;;;5.35;2.40;;;;;;;12.25;100.00;101912.66;5003698;28;20520;-61
2023/07/18 04:01:29;;;;;;;3.88;2.60;;;;;;;12.22;100.00;101916.03;5004356;28;20042;-61
2023/07/18 04:03:54;;;;;;;3.95;3.50;;;;;;;12.20;100.00;101909.88;5004118;28;20488;-60
2023/07/18 04:06:20;;;;;;;4.28;2.42;;;;;;;12.17;100.00;101917.53;5004486;28;20029;-60
2023/07/18 04:08:45;;;;;;;5.55;2.17;;;;;;;12.14;100.00;101909.63;5010737;28;20401;-60
2023/07/18 04:11:10;;;;;;;5.43;2.50;;;;;;;12.11;100.00;101906.88;5009675;28;20030;-61
2023/07/18 04:13:36;;;;;;;4.93;2.60;;;;;;;12.09;100.00;101900.69;5010093;28;20118;-61
2023/07/18 04:16:01;;;;;;;6.78;2.63;;;;;;;12.10;100.00;101897.31;5009510;28;20030;-60
2023/07/18 04:18:26;;;;;;;3.70;2.50;;;;;;;12.10;100.00;101892.13;4997976;28;20121;-60
2023/07/18 04:20:59;;;;;;;5.38;2.50;;;;;;;12.09;100.00;101895.47;5009337;28;20033;-60
2023/07/18 04:23:24;;;;;;;4.32;2.40;;;;;;;12.06;100.00;101890.16;5009870;28;20018;-61
2023/07/18 04:26:01;;;;;;;5.13;2.30;;;;;;;12.05;100.00;101889.31;5007815;28;20030;-60
2023/07/18 04:28:28;;;;;;;3.13;2.08;;;;;;;12.04;100.00;101882.31;4990485;28;20026;-61
2023/07/18 04:30:53;;;;;;;4.32;2.17;;;;;;;12.05;100.00;101880.63;4990638;28;20022;-61
2023/07/18 04:33:19;;;;;;;4.28;2.50;;;;;;;12.05;100.00;101889.31;4990562;28;20030;-60
2023/07/18 04:35:45;;;;;;;3.17;2.00;;;;;;;12.04;100.00;101884.91;4990812;28;20026;-61
2023/07/18 04:38:11;;;;;;;3.97;2.47;;;;;;;12.08;100.00;101893.72;4990275;28;20032;-61
2023/07/18 04:40:37;;;;;;;4.85;2.72;;;;;;;12.10;100.00;101889.53;4990689;28;20409;-62
2023/07/18 04:43:02;;;;;;;5.35;2.17;;;;;;;12.11;100.00;101886.97;4990585;28;20132;-61
2023/07/18 04:45:27;;;;;;;3.80;2.38;;;;;;;12.16;100.00;101881.97;4990407;28;20018;-61
2023/07/18 04:47:52;;;;;;;2.85;2.00;;;;;;;12.18;100.00;101890.72;4990068;28;20022;-61
2023/07/18 04:50:18;;;;;;;3.38;2.63;;;;;;;12.20;100.00;101890.78;5004043;28;20015;-61
2023/07/18 04:52:43;;;;;;;5.07;2.40;;;;;;;12.24;100.00;101888.41;5009599;28;20377;-60
2023/07/18 04:55:09;;;;;;;3.65;2.72;;;;;;;12.26;100.00;101883.25;5009494;28;20037;-61
2023/07/18 04:57:34;;;;;;;4.97;2.58;;;;;;;12.34;100.00;101887.06;5009279;28;20265;-60
2023/07/18 05:00:00;;;;;;;4.07;2.30;;;;;;;12.39;100.00;101887.25;5008955;28;20025;-61
2023/07/18 05:02:25;;;;;;;5.40;2.22;;;;;;;12.45;100.00;101887.50;5009584;28;20474;-60
2023/07/18 05:04:50;;;;;;;3.58;2.08;;;;;;;12.52;100.00;101886.03;5008800;28;20014;-62
2023/07/18 05:07:16;;;;;;;4.75;2.08;;;;;;;12.60;100.00;101878.53;4990791;28;20105;-61
2023/07/18 05:09:41;;;;;;;5.38;1.83;;;;;;;12.71;100.00;101882.47;4990668;28;20034;-61
2023/07/18 05:12:06;;;;;;;5.35;1.80;;;;;;;12.83;100.00;101875.97;4990628;28;20070;-61
2023/07/18 05:14:32;;;;;;;5.95;2.05;;;;;;;12.94;100.00;101882.50;4991425;28;20034;-60
2023/07/18 05:16:57;;;;;;;3.33;1.80;;;;;;;13.05;100.00;101895.00;4991080;28;20232;-61
2023/07/18 05:19:23;;;;;;;4.97;1.77;;;;;;;13.15;100.00;101893.69;4992450;28;20061;-60
2023/07/18 05:21:50;;;;;;;4.28;2.38;;;;;;;13.24;100.00;101887.94;4990080;28;20197;-60
2023/07/18 05:24:15;;;;;;;3.88;2.55;;;;;;;13.33;100.00;101881.34;4992762;28;20064;-61
2023/07/18 05:26:40;;;;;;;5.97;1.90;;;;;;;13.41;100.00;101884.22;5006110;28;20053;-60
2023/07/18 05:29:06;;;;;;;2.33;1.60;;;;;;;13.47;100.00;101880.06;5007570;28;20033;-61
2023/07/18 05:31:31;;;;;;;5.35;1.90;;;;;;;13.56;100.00;101885.66;5009060;28;20440;-61
2023/07/18 05:33:56;;;;;;;3.45;1.40;;;;;;;13.64;100.00;101886.81;5008359;28;20034;-62
2023/07/18 05:36:21;;;;;;;4.22;2.03;;;;;;;13.72;100.00;101887.09;5001511;28;20021;-60
2023/07/18 05:38:47;;;;;;;3.72;1.67;;;;;;;13.78;100.00;101886.44;4990605;28;20026;-61
2023/07/18 05:41:12;;;;;;;3.40;1.40;;;;;;;13.84;100.00;101889.25;5001077;28;20491;-60
2023/07/18 05:43:37;;;;;;;6.03;1.88;;;;;;;13.90;100.00;101881.66;4993484;28;20022;-61
2023/07/18 05:46:02;;;;;;;1.98;1.05;;;;;;;14.01;100.00;101886.34;5003376;28;20483;-61
2023/07/18 05:48:28;;;;;;;4.63;1.90;;;;;;;14.10;100.00;101883.16;4994028;28;20030;-61
2023/07/18 05:50:55;;;;;;;4.00;1.60;;;;;;;14.19;100.00;101891.31;4989106;28;20121;-61
2023/07/18 05:53:21;;;;;;;2.47;1.48;;;;;;;14.26;100.00;101893.28;5002233;28;20377;-61
2023/07/18 05:55:46;;;;;;;2.75;1.50;;;;;;;14.35;100.00;101899.63;4998022;28;20038;-61
2023/07/18 05:58:11;;;;;;;2.80;1.20;;;;;;;14.44;100.00;101889.50;5000827;28;20360;-60
2023/07/18 06:00:37;;;;;;;2.83;1.63;;;;;;;14.56;100.00;101902.06;4997238;28;20081;-61
2023/07/18 06:03:02;;;;;;;2.33;1.88;;;;;;;14.64;100.00;101903.19;4997744;28;20029;-60
2023/07/18 06:05:28;;;;;;;4.25;1.83;;;;;;;14.77;100.00;101898.34;4999280;28;20163;-61
2023/07/18 06:07:53;;;;;;;5.93;1.60;;;;;;;14.89;100.00;101901.38;5001577;28;20030;-61
2023/07/18 06:10:18;;;;;;;4.00;1.40;;;;;;;14.99;100.00;101897.34;4997573;28;20041;-61
2023/07/18 06:12:44;;;;;;;4.13;1.67;;;;;;;15.09;100.00;101895.88;5002945;28;20030;-61
2023/07/18 06:15:10;;;;;;;4.70;1.45;;;;;;;15.21;100.00;101903.22;4995472;28;20025;-61
2023/07/18 06:17:35;;;;;;;2.30;1.27;;;;;;;15.32;100.00;101898.31;5003209;28;20033;-60
2023/07/18 06:20:02;;;;;;;3.47;1.50;;;;;;;15.38;100.00;101892.34;5004320;28;20500;-60
2023/07/18 06:22:28;;;;;;;2.60;1.40;;;;;;;15.50;100.00;101897.06;5002425;28;20033;-60
2023/07/18 06:24:53;;;;;;;3.58;1.08;;;;;;;15.58;100.00;101900.75;5005531;28;20176;-60
2023/07/18 06:27:18;;;;;;;2.97;1.50;;;;;;;15.63;100.00;101892.19;5004285;28;20497;-60
2023/07/18 06:29:44;;;;;;;4.75;1.50;;;;;;;15.73;100.00;101895.09;5007884;28;20207;-60
2023/07/18 06:32:10;;;;;;;4.40;1.77;;;;;;;15.87;100.00;101896.28;5007496;28;20037;-61
2023/07/18 06:34:40;;;;;;;3.83;1.10;;;;;;;15.94;100.00;101890.38;5007643;28;20026;-60
2023/07/18 06:37:08;;;;;;;3.08;1.30;;;;;;;16.02;100.00;101891.50;5007153;28;20029;-60
2023/07/18 06:39:33;;;;;;;2.05;1.23;;;;;;;16.15;100.00;101897.06;4988467;28;20029;-60
2023/07/18 06:41:59;;;;;;;2.15;0.93;;;;;;;16.33;100.00;101889.66;4987454;28;20058;-59
2023/07/18 06:44:24;;;;;;;2.72;0.90;;;;;;;16.47;100.00;101894.38;4996013;28;20101;-59
2023/07/18 06:46:50;;;;;;;3.30;1.05;;;;;;;16.65;100.00;101898.25;4993782;28;20026;-60
2023/07/18 06:49:18;;;;;;;4.05;1.02;;;;;;;16.76;99.27;101896.78;5006193;28;20018;-60
2023/07/18 06:51:43;;;;;;;2.92;1.10;;;;;;;16.88;97.07;101892.66;5005684;28;20105;-60
2023/07/18 06:54:08;;;;;;;4.60;1.20;;;;;;;16.96;95.40;101893.75;5006124;28;20105;-60
2023/07/18 06:56:34;;;;;;;2.33;0.88;;;;;;;16.99;93.19;101888.56;5005372;28;20099;-59
2023/07/18 06:59:00;;;;;;;1.60;0.80;;;;;;;17.00;92.57;101882.47;5005247;28;20504;-60
2023/07/18 07:01:26;;;;;;;2.83;1.10;;;;;;;17.10;91.98;101886.22;5005608;28;20141;-60
2023/07/18 07:03:51;;;;;;;2.20;0.80;;;;;;;17.26;93.42;101883.91;5006112;28;20054;-60
2023/07/18 07:06:18;;;;;;;2.25;1.20;;;;;;;17.31;88.15;101882.25;5007545;28;20025;-59
2023/07/18 07:08:43;;;;;;;2.45;0.80;;;;;;;17.45;89.53;101887.78;5007343;28;20057;-60
2023/07/18 07:11:09;;;;;;;2.08;0.70;;;;;;;17.63;88.97;101884.63;5007152;28;20498;-60
2023/07/18 07:13:35;;;;;;;1.80;0.75;;;;;;;17.82;88.57;101887.63;5007035;28;20393;-60
2023/07/18 07:16:03;;;;;;;1.95;0.88;;;;;;;18.00;87.18;101892.31;5006916;28;20117;-60
2023/07/18 07:18:29;;;;;;;3.88;1.02;;;;;;;18.03;83.83;101890.56;4995051;28;20033;-60
2023/07/18 07:20:54;;;;;;;2.53;0.90;;;;;;;17.97;81.83;101894.88;5006622;28;20029;-60
2023/07/18 07:23:20;;;;;;;4.50;1.23;;;;;;;18.12;83.80;101888.13;5007167;28;20120;-61
2023/07/18 07:25:45;;;;;;;2.47;0.80;;;;;;;18.27;84.95;101889.28;5005659;28;20033;-59
2023/07/18 07:28:10;;;;;;;3.95;0.90;;;;;;;18.26;80.24;101892.78;4988506;28;20081;-61
2023/07/18 07:30:35;;;;;;;2.78;1.13;;;;;;;18.32;81.23;101888.50;5001272;28;20431;-61
2023/07/18 07:33:01;;;;;;;3.40;0.90;;;;;;;18.50;83.20;101887.03;5008477;28;20029;-60
2023/07/18 07:35:26;;;;;;;1.70;0.73;;;;;;;18.66;80.84;101888.13;5008988;28;20057;-60
2023/07/18 07:37:52;;;;;;;2.47;0.85;;;;;;;18.83;81.82;101885.75;5009024;28;20040;-61
2023/07/18 07:40:18;;;;;;;2.83;1.42;;;;;;;19.02;83.06;101886.00;5000567;28;20598;-60
2023/07/18 07:42:45;;;;;;;2.67;1.10;;;;;;;19.12;79.12;101892.31;5005111;28;20042;-60
2023/07/18 07:45:14;;;;;;;2.17;1.00;;;;;;;19.27;80.02;101890.72;5000793;28;20605;-60
2023/07/18 07:47:40;;;;;;;2.42;0.95;;;;;;;19.43;79.93;101876.00;5005145;28;20030;-61
2023/07/18 07:50:07;;;;;;;2.38;1.20;;;;;;;19.48;72.99;101878.72;4999719;28;20022;-60
2023/07/18 07:52:33;;;;;;;2.78;1.38;;;;;;;19.49;76.20;101885.72;4996040;28;20041;-60
2023/07/18 07:54:59;;;;;;;1.58;0.65;;;;;;;19.54;73.89;101884.03;4997575;28;20038;-60
2023/07/18 07:57:24;;;;;;;2.97;0.80;;;;;;;19.75;77.40;101883.38;5009655;28;20026;-61
2023/07/18 07:59:51;;;;;;;1.35;0.57;;;;;;;20.02;74.74;101876.59;5006757;28;20049;-62
2023/07/18 08:02:17;;;;;;;1.13;0.50;;;;;;;20.25;68.67;101878.59;5008904;28;20109;-60
2023/07/18 08:04:43;;;;;;;2.00;0.60;;;;;;;20.31;65.31;101884.78;5000538;28;20686;-61
2023/07/18 08:07:08;;;;;;;3.58;0.90;;;;;;;20.52;68.06;101882.28;4996496;28;20018;-60
2023/07/18 08:09:34;;;;;;;1.30;0.50;;;;;;;20.74;67.54;101882.41;5004130;28;20256;-61
2023/07/18 08:11:59;;;;;;;2.50;0.50;;;;;;;20.91;65.11;101881.66;5010115;28;20646;-61
2023/07/18 08:14:25;;;;;;;1.48;0.50;;;;;;;20.92;65.17;101877.25;5005724;28;20022;-60
2023/07/18 08:16:50;;;;;;;2.90;0.70;;;;;;;21.13;63.36;101873.00;5009148;28;20698;-60
2023/07/18 08:19:15;;;;;;;2.80;0.60;;;;;;;21.15;62.65;101871.25;5007759;28;20394;-61
2023/07/18 08:21:41;;;;;;;1.60;0.40;;;;;;;21.43;64.39;101869.59;5006482;28;20497;-61
2023/07/18 08:24:06;;;;;;;1.27;0.60;;;;;;;21.72;62.33;101870.50;5002925;28;20046;-61
2023/07/18 08:26:32;;;;;;;1.83;0.73;;;;;;;21.67;60.01;101869.63;5006928;28;20597;-61
2023/07/18 08:28:57;;;;;;;2.35;0.82;;;;;;;21.78;60.49;101872.28;5000262;28;20471;-61
2023/07/18 08:31:23;;;;;;;2.85;0.43;;;;;;;21.87;57.31;101868.81;4994407;28;20367;-61
2023/07/18 08:33:48;;;;;;;2.17;0.40;;;;;;;21.68;56.55;101861.72;4992222;28;20494;-60
2023/07/18 08:36:13;;;;;;;3.30;0.60;;;;;;;21.71;56.12;101858.22;4993936;28;20517;-61
2023/07/18 08:38:39;;;;;;;1.00;0.40;;;;;;;21.92;57.40;101864.41;4991079;28;20032;-61
2023/07/18 08:41:04;;;;;;;1.08;0.40;;;;;;;22.18;55.98;101867.06;4993676;28;20113;-61
2023/07/18 08:43:31;;;;;;;1.23;0.30;;;;;;;22.39;56.45;101853.84;4990383;28;20023;-60
2023/07/18 08:45:57;;;;;;;0.40;0.20;;;;;;;22.55;55.71;101852.94;4991122;28;20423;-61
2023/07/18 08:48:23;;;;;;;0.95;0.40;;;;;;;22.52;54.81;101850.28;4991520;28;20137;-62
2023/07/18 08:50:50;;;;;;;2.13;0.47;;;;;;;22.48;53.28;101852.94;4999327;28;20484;-60
2023/07/18 08:53:16;;;;;;;0.65;0.30;;;;;;;22.59;53.72;101855.56;5009363;28;20080;-60
2023/07/18 08:55:42;;;;;;;1.00;0.20;;;;;;;22.70;51.88;101848.53;4991029;28;20050;-60
2023/07/18 08:58:08;;;;;;;0.22;0.20;;;;;;;22.87;53.21;101850.22;4990148;28;20026;-60
2023/07/18 09:00:33;;;;;;;0.65;0.20;;;;;;;22.94;53.16;101845.78;4998284;28;20251;-61
2023/07/18 09:02:58;;;;;;;1.00;0.30;;;;;;;23.02;51.33;101844.00;5016350;28;20038;-61
2023/07/18 09:05:31;;;;;;;1.00;0.45;;;;;;;23.19;50.31;101833.34;5008300;28;20026;-60
2023/07/18 09:07:57;;;;;;;0.90;0.40;;;;;;;23.04;50.09;101829.03;5004874;28;20112;-61
2023/07/18 09:10:24;;;;;;;0.32;0.20;;;;;;;22.88;48.88;101837.00;4997804;28;20030;-60
2023/07/18 09:12:49;;;;;;;1.02;0.40;;;;;;;22.74;49.12;101823.84;5005299;28;20501;-62
2023/07/18 09:15:19;;;;;;;0.60;0.20;;;;;;;22.94;50.21;101825.53;4996949;28;20113;-61
2023/07/18 09:17:52;;;;;;;0.88;0.32;;;;;;;23.26;51.72;101829.78;4994701;28;20026;-61
2023/07/18 09:20:18;;;;;;;1.42;0.40;;;;;;;23.51;48.34;101827.00;4995371;28;20218;-61
2023/07/18 09:22:43;;;;;;;2.10;0.40;;;;;;;23.28;47.12;101819.19;4997394;28;20109;-60
2023/07/18 09:25:13;;;;;;;0.98;0.35;;;;;;;23.31;47.11;101813.00;5004754;28;20594;-60
2023/07/18 09:27:39;;;;;;;0.43;0.20;;;;;;;23.55;50.40;101816.44;4994062;28;20041;-60
2023/07/18 09:30:05;;;;;;;1.98;0.75;;;;;;;23.39;45.22;101819.13;5001836;28;20026;-59
2023/07/18 09:32:31;;;;;;;0.65;0.20;;;;;;;23.12;46.69;101806.06;4996207;28;20490;-61
2023/07/18 09:35:01;;;;;;;1.38;0.40;;;;;;;22.76;47.21;101806.22;5002318;28;20034;-61
2023/07/18 09:37:27;;;;;;;1.30;0.40;;;;;;;22.68;49.42;101808.03;5005673;28;20149;-61
2023/07/18 09:39:54;;;;;;;1.13;0.35;;;;;;;22.91;48.70;101807.94;5007535;28;20542;-61
2023/07/18 09:42:21;;;;;;;1.08;0.40;;;;;;;22.88;48.41;101805.28;5005265;28;20049;-61
2023/07/18 09:44:51;;;;;;;0.68;0.40;;;;;;;23.27;49.30;101813.03;5002759;28;20061;-61
2023/07/18 09:47:17;;;;;;;1.05;0.35;;;;;;;23.63;49.26;101809.31;5000456;28;20072;-61
2023/07/18 09:49:43;;;;;;;0.50;0.32;;;;;;;23.66;47.44;101809.25;5000128;28;20113;-60
2023/07/18 09:52:09;;;;;;;0.50;0.25;;;;;;;23.44;47.29;101808.56;5006627;28;20025;-60
2023/07/18 09:54:34;;;;;;;2.63;0.45;;;;;;;23.24;46.96;101814.81;4999877;28;20399;-61
2023/07/18 09:57:03;;;;;;;0.60;0.30;;;;;;;23.15;48.88;101810.47;4990783;28;20124;-60
2023/07/18 09:59:29;;;;;;;0.82;0.40;;;;;;;22.97;47.83;101814.94;4997099;28;20037;-61
2023/07/18 10:01:55;;;;;;;0.73;0.57;;;;;;;23.06;50.52;101807.88;5002693;28;20457;-60
2023/07/18 10:04:21;;;;;;;0.57;0.30;;;;;;;23.22;47.09;101806.00;4997624;28;20021;-60
2023/07/18 10:06:49;;;;;;;1.85;0.75;;;;;;;23.36;48.79;101798.00;5006396;28;20061;-60
2023/07/18 10:09:16;;;;;;;1.33;0.60;;;;;;;23.73;50.44;101786.28;5000094;28;20498;-59
2023/07/18 10:12:03;;;;;;;4.70;0.70;;;;;;;24.11;50.93;101800.06;5000945;28;20026;-60
2023/07/18 10:14:29;;;;;;;0.47;0.35;;;;;;;24.17;47.16;101786.78;4997583;28;20479;-60
2023/07/18 10:16:55;;;;;;;1.67;0.40;;;;;;;24.24;47.15;101784.97;5001477;28;20030;-60
2023/07/18 10:19:25;;;;;;;1.05;0.35;;;;;;;23.94;47.92;101777.31;5000705;28;20031;-60
2023/07/18 10:21:56;;;;;;;1.45;0.40;;;;;;;23.92;49.36;101773.78;5001995;28;20036;-61
2023/07/18 10:24:24;;;;;;;1.90;0.40;;;;;;;23.95;46.33;101767.56;4997899;28;20479;-60
2023/07/18 10:26:55;;;;;;;1.38;0.40;;;;;;;23.74;47.26;101762.47;4992993;28;20030;-60
2023/07/18 10:29:21;;;;;;;2.17;0.38;;;;;;;23.65;46.71;101753.75;4987123;28;20501;-60
2023/07/18 10:31:46;;;;;;;0.57;0.43;;;;;;;23.44;47.29;101760.97;4989383;28;20026;-60
2023/07/18 10:34:16;;;;;;;2.17;0.40;;;;;;;22.93;47.41;101752.44;5008446;28;20036;-60
2023/07/18 10:37:00;;;;;;;1.02;0.47;;;;;;;23.00;49.75;101754.16;5008860;28;20033;-60
2023/07/18 10:39:49;;;;;;;1.85;0.40;;;;;;;23.13;49.14;101751.44;5007233;28;20509;-61
2023/07/18 10:42:26;;;;;;;2.50;0.40;;;;;;;23.36;51.57;101746.00;5002762;28;20046;-61
2023/07/18 10:45:12;;;;;;;2.08;0.50;;;;;;;23.64;49.49;101750.22;5008456;28;20029;-60
2023/07/18 10:47:37;;;;;;;1.48;0.50;;;;;;;23.91;49.02;101756.13;5007704;28;20548;-60
2023/07/18 10:50:06;;;;;;;0.90;0.45;;;;;;;24.02;47.63;101757.78;5002014;28;20065;-60
2023/07/18 10:52:32;;;;;;;4.28;0.60;;;;;;;23.81;47.58;101749.19;4995881;28;20033;-60
2023/07/18 10:54:59;;;;;;;0.93;0.40;;;;;;;24.04;49.03;101745.44;5008669;28;20026;-61
2023/07/18 10:57:27;;;;;;;1.13;0.40;;;;;;;24.11;49.14;101739.19;4989944;28;20898;-61
2023/07/18 10:59:54;;;;;;;2.88;0.40;;;;;;;23.89;47.06;101738.53;5002627;28;20482;-62
2023/07/18 11:02:20;;;;;;;1.35;0.50;;;;;;;23.84;47.66;101744.75;5002065;28;20110;-60
2023/07/18 11:04:46;;;;;;;1.20;0.35;;;;;;;24.03;47.64;101727.81;5002756;28;20811;-61
2023/07/18 11:07:11;;;;;;;0.75;0.30;;;;;;;24.25;47.75;101728.47;5008284;28;20045;-60
2023/07/18 11:09:37;;;;;;;2.00;0.60;;;;;;;24.21;46.63;101735.56;5008222;28;20033;-60
2023/07/18 11:12:04;;;;;;;1.13;0.38;;;;;;;23.85;46.62;101735.03;5009059;28;20045;-60
2023/07/18 11:14:39;;;;;;;1.33;0.50;;;;;;;23.94;47.32;101734.97;5007479;28;20470;-60